Time;durP1;ratioP1;P1;durP2;ratioP2;P2;SDS_P1;SDS_P2;PMS_P1;PMS_P2;Temp;Humidity;BMP_temperature;BMP_pressure;BME280_temperature;BME280_humidity;BME280_pressure;Samples;Min_cycle;Max_cycle;Signal;HPM_P1;HPM_P2
2022/10/13 00:01:41;;;;;;;16.50;8.40;;;;;;;9.42;66.83;100117.83;24529;1334;3052435;-73
2022/10/13 00:04:09;;;;;;;18.40;8.80;;;;;;;9.34;67.21;100117.14;24564;1332;3026842;-72
2022/10/13 00:06:39;;;;;;;19.10;8.10;;;;;;;9.31;67.26;100118.33;24509;1333;3051829;-71
2022/10/13 00:09:08;;;;;;;21.50;9.00;;;;;;;9.31;67.09;100113.56;24565;1337;3028125;-74
2022/10/13 00:11:37;;;;;;;12.60;8.10;;;;;;;9.24;67.27;100117.55;24553;1335;3053486;-70
2022/10/13 00:14:09;;;;;;;14.30;7.00;;;;;;;9.16;67.84;100118.81;24532;1334;3026678;-70
2022/10/13 00:16:38;;;;;;;12.00;6.40;;;;;;;9.18;67.50;100117.49;24468;1334;3027182;-70
2022/10/13 00:19:10;;;;;;;15.50;7.20;;;;;;;9.08;67.70;100115.48;24541;1333;3053752;-69
2022/10/13 00:21:40;;;;;;;13.70;7.60;;;;;;;9.05;67.80;100115.79;24559;1333;3028296;-68
2022/10/13 00:24:10;;;;;;;20.90;8.10;;;;;;;9.07;67.71;100114.11;24563;1330;3025932;-64
2022/10/13 00:26:39;;;;;;;14.00;6.70;;;;;;;9.07;67.46;100114.64;24595;1334;3052949;-64
2022/10/13 00:29:09;;;;;;;13.70;6.10;;;;;;;9.07;67.24;100110.64;24542;1334;3026645;-68
2022/10/13 00:31:38;;;;;;;11.50;5.30;;;;;;;9.03;67.37;100113.77;24509;1334;3025915;-71
2022/10/13 00:34:08;;;;;;;11.10;5.40;;;;;;;8.99;67.48;100117.95;24521;1334;3026057;-66
2022/10/13 00:36:39;;;;;;;11.80;5.40;;;;;;;8.86;67.99;100117.14;24500;1326;3029128;-68
2022/10/13 00:39:08;;;;;;;15.50;4.80;;;;;;;8.84;67.79;100118.62;24510;1333;3028740;-74
2022/10/13 00:45:49;;;;;;;13.20;5.50;;;;;;;8.79;68.13;100114.13;24563;1324;3068647;-70
2022/10/13 00:48:27;;;;;;;12.90;6.10;;;;;;;8.77;68.16;100114.39;24523;1334;3026227;-74
2022/10/13 00:50:57;;;;;;;14.60;6.50;;;;;;;8.75;68.14;100117.93;24557;1334;3056052;-65
2022/10/13 00:53:27;;;;;;;17.20;6.50;;;;;;;8.69;68.35;100117.15;24486;1333;3026511;-67
2022/10/13 00:55:58;;;;;;;20.10;7.00;;;;;;;8.70;68.50;100113.09;24502;1340;3028132;-68
2022/10/13 00:58:31;;;;;;;14.70;7.30;;;;;;;8.75;68.00;100112.52;24552;1334;3026333;-69
2022/10/13 01:01:00;;;;;;;10.40;5.70;;;;;;;8.81;67.67;100113.33;24527;1337;3054500;-69
2022/10/13 01:03:29;;;;;;;11.90;4.80;;;;;;;8.77;67.67;100114.20;24616;1316;3029526;-70
2022/10/13 01:06:00;;;;;;;11.70;5.90;;;;;;;8.74;67.57;100112.23;24505;1324;3056706;-68
2022/10/13 01:08:29;;;;;;;9.80;5.70;;;;;;;8.77;67.54;100110.34;24540;1331;3026110;-70
2022/10/13 01:11:14;;;;;;;9.00;4.50;;;;;;;8.69;67.79;100112.80;24558;1334;3028533;-69
2022/10/13 01:14:09;;;;;;;7.30;3.80;;;;;;;8.65;67.89;100111.02;24493;1333;3052440;-65
2022/10/13 01:17:43;;;;;;;11.80;4.10;;;;;;;8.54;68.42;100112.20;30825;1332;3012995;-74
2022/10/13 01:20:18;;;;;;;9.60;4.00;;;;;;;8.46;68.47;100113.03;24491;1339;3070007;-69
2022/10/13 01:23:05;;;;;;;8.80;4.30;;;;;;;8.38;68.85;100114.05;24425;1339;3050279;-74
2022/10/13 01:26:00;;;;;;;8.70;4.10;;;;;;;8.27;69.35;100118.14;24483;1339;3056374;-69
2022/10/13 01:28:31;;;;;;;8.30;4.20;;;;;;;8.24;69.25;100121.42;24501;1339;3052516;-72
2022/10/13 01:31:03;;;;;;;11.30;4.60;;;;;;;8.28;69.07;100120.22;23811;1338;4002367;-68
2022/10/13 01:33:53;;;;;;;10.10;4.30;;;;;;;8.21;69.34;100122.27;24486;1336;3056937;-71
2022/10/13 01:36:26;;;;;;;6.30;3.60;;;;;;;8.19;69.28;100121.81;24520;1334;3054562;-71
2022/10/13 01:39:10;;;;;;;6.30;2.30;;;;;;;8.18;69.32;100122.37;24523;1335;3054756;-67
2022/10/13 01:41:40;;;;;;;;;;;;;;;8.87;68.17;100124.42;24503;1335;3051655;-69
2022/10/13 01:44:11;;;;;;;7.60;3.10;;;;;;;9.25;66.19;100128.34;24532;1343;3025998;-69
2022/10/13 01:46:43;;;;;;;6.50;3.40;;;;;;;9.23;65.71;100123.20;24547;1334;3049457;-67
2022/10/13 01:49:14;;;;;;;5.90;3.10;;;;;;;9.14;65.83;100121.88;24521;1340;3026828;-66
2022/10/13 01:51:44;;;;;;;9.10;3.80;;;;;;;8.93;66.02;100124.34;24489;1326;3053213;-73
2022/10/13 01:54:13;;;;;;;7.80;3.50;;;;;;;8.70;66.59;100125.33;24511;1326;3026082;-71
2022/10/13 01:56:53;;;;;;;9.70;3.30;;;;;;;8.51;67.20;100120.85;24562;1336;3050845;-69
2022/10/13 01:59:23;;;;;;;6.30;3.20;;;;;;;8.37;67.63;100128.06;24570;1333;3052048;-73
2022/10/13 02:01:54;;;;;;;8.60;3.20;;;;;;;8.29;67.74;100127.51;24574;1339;3028184;-69
2022/10/13 02:04:40;;;;;;;10.20;3.30;;;;;;;8.25;67.70;100125.55;24574;1332;3026423;-71
2022/10/13 02:07:18;;;;;;;7.00;3.10;;;;;;;8.13;68.22;100129.02;24566;1327;3049986;-72
2022/10/13 02:10:26;;;;;;;10.40;3.70;;;;;;;8.05;68.27;100127.08;24580;1326;3029405;-66
2022/10/13 02:12:58;;;;;;;12.60;4.40;;;;;;;7.93;68.82;100138.52;24526;1332;3052851;-68
2022/10/13 02:15:36;;;;;;;7.80;3.60;;;;;;;7.87;69.06;100136.14;24622;1318;3051868;-70
2022/10/13 02:18:11;;;;;;;11.70;4.60;;;;;;;7.72;69.47;100141.75;24560;1332;3052131;-68
2022/10/13 02:20:41;;;;;;;12.30;4.00;;;;;;;7.72;69.43;100145.42;24583;1322;3025930;-67
2022/10/13 02:23:13;;;;;;;8.40;4.10;;;;;;;7.76;69.14;100140.93;24511;1335;3028113;-66
2022/10/13 02:25:42;;;;;;;6.80;2.90;;;;;;;7.71;69.55;100145.81;24535;1326;3027988;-69
2022/10/13 02:28:12;;;;;;;11.50;4.30;;;;;;;7.65;69.60;100143.80;24579;1326;3024881;-71
2022/10/13 02:30:44;;;;;;;9.10;3.60;;;;;;;7.63;69.61;100144.39;24599;1325;3051032;-68
2022/10/13 02:33:14;;;;;;;11.60;3.40;;;;;;;7.63;69.51;100145.92;24619;1329;3029424;-67
2022/10/13 02:35:45;;;;;;;8.30;3.60;;;;;;;7.64;69.35;100142.58;24582;1333;3052811;-67
2022/10/13 02:38:15;;;;;;;7.30;3.30;;;;;;;7.57;69.79;100141.30;24526;1335;3028010;-65
2022/10/13 02:40:44;;;;;;;13.40;4.30;;;;;;;7.54;69.87;100141.91;24561;1326;3026007;-69
2022/10/13 02:43:13;;;;;;;10.30;3.80;;;;;;;7.51;69.95;100143.44;24513;1333;3051598;-65
2022/10/13 02:45:43;;;;;;;9.40;4.10;;;;;;;7.47;69.96;100138.70;24535;1336;3028683;-69
2022/10/13 02:48:12;;;;;;;5.60;2.70;;;;;;;7.47;70.34;100137.64;24613;1326;3027239;-66
2022/10/13 02:50:42;;;;;;;8.10;3.00;;;;;;;8.07;69.00;100132.92;24593;1326;3053154;-67
2022/10/13 02:56:56;;;;;;;12.90;4.30;;;;;;;8.58;66.54;100137.72;24533;1320;3051030;-66
2022/10/13 02:59:26;;;;;;;9.20;3.40;;;;;;;8.42;66.64;100137.11;24480;1325;3027711;-74
2022/10/13 03:01:55;;;;;;;9.10;3.80;;;;;;;8.29;66.88;100136.55;24524;1333;3053621;-74
2022/10/13 03:04:26;;;;;;;10.20;4.60;;;;;;;8.08;67.42;100137.75;24512;1333;3026531;-71
2022/10/13 03:06:56;;;;;;;10.40;3.70;;;;;;;7.80;68.46;100143.20;24541;1333;3026604;-73
2022/10/13 03:09:27;;;;;;;12.50;4.70;;;;;;;7.71;68.55;100142.30;24562;1333;3026321;-67
2022/10/13 03:11:58;;;;;;;11.10;4.50;;;;;;;7.57;69.42;100142.85;24536;1330;3028948;-66
2022/10/13 03:14:27;;;;;;;9.70;4.50;;;;;;;7.51;69.31;100147.23;24572;1326;3026195;-78
2022/10/13 03:16:57;;;;;;;10.10;4.00;;;;;;;7.51;69.31;100145.50;24543;1336;3049553;-71
2022/10/13 03:19:26;;;;;;;14.70;5.20;;;;;;;7.43;69.71;100143.70;24537;1336;3028781;-70
2022/10/13 03:21:55;;;;;;;9.40;5.10;;;;;;;7.32;70.14;100143.23;24564;1327;3026142;-66
2022/10/13 03:24:24;;;;;;;10.70;4.60;;;;;;;7.25;70.47;100144.73;24541;1329;3026547;-66
2022/10/13 03:26:53;;;;;;;7.10;4.20;;;;;;;7.27;70.43;100144.84;24476;1336;3067512;-70
2022/10/13 03:29:22;;;;;;;9.80;3.60;;;;;;;7.24;70.30;100145.45;24526;1327;3028503;-69
2022/10/13 03:31:52;;;;;;;8.30;4.50;;;;;;;7.25;70.41;100142.98;24553;1329;3048231;-71
2022/10/13 03:34:21;;;;;;;9.10;4.60;;;;;;;7.18;70.75;100144.77;24493;1336;3027122;-72
2022/10/13 03:36:50;;;;;;;7.80;4.30;;;;;;;7.16;70.67;100145.04;24507;1342;3052716;-66
2022/10/13 03:39:20;;;;;;;6.50;2.70;;;;;;;7.15;71.30;100148.91;24444;1328;3025679;-70
2022/10/13 03:41:50;;;;;;;9.10;3.10;;;;;;;7.80;69.46;100147.58;24499;1336;3051914;-71
2022/10/13 03:44:19;;;;;;;9.30;3.90;;;;;;;8.31;67.55;100144.33;24495;1335;3028286;-67
2022/10/13 03:46:48;;;;;;;10.80;3.80;;;;;;;8.35;66.95;100146.28;24513;1339;3053742;-70
2022/10/13 03:49:17;;;;;;;9.40;4.40;;;;;;;8.15;67.33;100147.08;24494;1331;3026693;-73
2022/10/13 03:51:46;;;;;;;11.60;4.30;;;;;;;8.07;67.32;100143.89;24510;1328;3026520;-73
2022/10/13 03:54:15;;;;;;;9.20;3.80;;;;;;;7.84;67.99;100149.30;24525;1327;3028843;-66
2022/10/13 03:56:45;;;;;;;10.40;4.00;;;;;;;7.70;68.52;100151.95;24504;1329;3052613;-72
2022/10/13 03:59:17;;;;;;;9.60;3.90;;;;;;;7.60;68.62;100151.29;24492;1329;3027793;-73
2022/10/13 04:01:46;;;;;;;12.50;4.00;;;;;;;7.44;69.53;100157.10;24553;1340;3028655;-72
2022/10/13 04:04:15;;;;;;;12.50;4.10;;;;;;;7.24;70.35;100157.80;24511;1331;3026232;-69
2022/10/13 04:06:46;;;;;;;9.40;3.70;;;;;;;7.14;70.81;100159.38;24537;1346;3052908;-73
2022/10/13 04:09:16;;;;;;;7.20;3.70;;;;;;;7.13;70.74;100162.20;24536;1335;3026834;-67
2022/10/13 04:11:50;;;;;;;8.50;4.40;;;;;;;7.03;71.52;100164.98;24466;1329;3028358;-76
2022/10/13 04:14:20;;;;;;;8.70;3.80;;;;;;;6.96;71.65;100162.44;24525;1328;3026710;-68
2022/10/13 04:16:49;;;;;;;9.20;4.60;;;;;;;6.91;71.87;100164.73;24501;1329;3028731;-71
2022/10/13 04:19:18;;;;;;;12.00;5.00;;;;;;;6.92;71.79;100166.58;24524;1335;3068679;-73
2022/10/13 04:21:48;;;;;;;9.00;3.20;;;;;;;6.96;71.89;100166.29;24548;1332;3026384;-69
2022/10/13 04:24:17;;;;;;;6.50;3.10;;;;;;;7.57;70.64;100169.52;24494;1336;3026640;-73
2022/10/13 04:26:46;;;;;;;7.00;3.10;;;;;;;8.11;68.68;100163.98;24503;1326;3068838;-69
2022/10/13 04:29:15;;;;;;;6.20;3.50;;;;;;;8.04;68.19;100173.69;24533;1334;3028481;-73
2022/10/13 04:31:45;;;;;;;8.20;3.80;;;;;;;7.92;68.39;100181.63;24530;1329;3026568;-71
2022/10/13 04:34:16;;;;;;;10.40;3.90;;;;;;;7.71;69.22;100182.25;24476;1336;3025619;-69
2022/10/13 04:36:48;;;;;;;12.00;4.10;;;;;;;7.56;69.66;100177.08;24556;1335;3028316;-72
2022/10/13 04:39:17;;;;;;;14.60;4.90;;;;;;;7.37;70.36;100174.27;24454;1338;3026046;-70
2022/10/13 04:41:48;;;;;;;10.10;4.60;;;;;;;7.26;70.70;100179.70;24511;1342;3026556;-73
2022/10/13 04:44:17;;;;;;;8.80;3.80;;;;;;;7.13;71.27;100179.80;24485;1321;3029087;-72
2022/10/13 04:46:46;;;;;;;11.30;4.40;;;;;;;7.08;71.58;100180.67;24512;1335;3051942;-67
2022/10/13 04:49:15;;;;;;;8.80;4.20;;;;;;;7.04;71.70;100183.27;24541;1328;3026960;-68
2022/10/13 04:51:46;;;;;;;12.90;5.80;;;;;;;7.00;72.02;100181.83;24484;1340;3052884;-68
2022/10/13 04:54:15;;;;;;;17.70;6.70;;;;;;;7.03;71.85;100184.52;24471;1335;3026388;-71
2022/10/13 04:56:45;;;;;;;12.00;6.50;;;;;;;6.97;72.16;100188.20;24496;1328;3052874;-69
2022/10/13 04:59:14;;;;;;;17.40;5.80;;;;;;;6.86;72.59;100190.66;24539;1333;3026493;-68
2022/10/13 05:01:44;;;;;;;8.40;4.50;;;;;;;6.90;72.73;100191.02;24512;1332;3028916;-67
2022/10/13 05:04:15;;;;;;;10.00;4.10;;;;;;;7.52;71.03;100191.50;24548;1314;3026840;-71
2022/10/13 05:06:45;;;;;;;9.50;4.70;;;;;;;8.01;68.85;100193.14;24522;1339;3026073;-70
2022/10/13 05:09:15;;;;;;;11.00;4.60;;;;;;;7.99;68.66;100195.51;24441;1333;3028595;-69
2022/10/13 05:11:44;;;;;;;11.50;4.90;;;;;;;8.00;68.32;100199.83;24609;1333;3026254;-68
2022/10/13 05:14:14;;;;;;;12.30;4.90;;;;;;;7.86;68.71;100201.21;24567;1326;3050630;-74
2022/10/13 05:16:54;;;;;;;12.70;4.90;;;;;;;7.72;69.26;100207.00;24505;1336;3069520;-72
2022/10/13 05:19:23;;;;;;;11.90;4.40;;;;;;;7.56;69.95;100205.48;24542;1326;3027620;-73
2022/10/13 05:21:54;;;;;;;9.80;4.10;;;;;;;7.48;70.07;100207.70;24550;1333;3049922;-70
2022/10/13 05:24:29;;;;;;;10.60;4.80;;;;;;;7.38;70.59;100204.72;24489;1326;3025835;-68
2022/10/13 05:26:59;;;;;;;9.90;4.50;;;;;;;7.37;70.76;100213.30;24487;1333;3053364;-74
2022/10/13 05:29:28;;;;;;;12.40;4.60;;;;;;;7.30;71.10;100212.30;24559;1325;3028634;-70
2022/10/13 05:31:57;;;;;;;13.90;4.50;;;;;;;7.35;71.10;100208.83;24502;1336;3051022;-68
2022/10/13 05:34:26;;;;;;;8.50;4.10;;;;;;;7.33;71.16;100214.48;24559;1325;3025704;-74
2022/10/13 05:36:55;;;;;;;13.20;4.50;;;;;;;7.38;71.25;100217.27;24516;1334;3054168;-74
2022/10/13 05:39:24;;;;;;;13.20;5.20;;;;;;;7.33;71.49;100220.23;24527;1333;3027621;-70
2022/10/13 05:41:53;;;;;;;12.20;5.70;;;;;;;7.35;71.51;100216.69;24514;1326;3053504;-70
2022/10/13 05:44:25;;;;;;;11.60;3.40;;;;;;;7.45;71.17;100219.98;24530;1339;3027092;-69
2022/10/13 05:46:57;;;;;;;10.30;4.20;;;;;;;8.04;69.82;100222.34;24523;1339;3026641;-72
2022/10/13 05:49:26;;;;;;;15.50;5.70;;;;;;;8.48;68.04;100222.61;24542;1335;3029896;-69
2022/10/13 05:51:57;;;;;;;14.20;6.50;;;;;;;8.59;67.60;100225.86;24523;1339;3052143;-76
2022/10/13 05:54:29;;;;;;;14.50;6.90;;;;;;;8.63;67.28;100222.55;24478;1337;3027503;-69
2022/10/13 05:57:04;;;;;;;17.40;7.10;;;;;;;8.61;67.10;100219.30;24499;1341;3026213;-67
2022/10/13 05:59:36;;;;;;;13.90;6.80;;;;;;;8.49;67.33;100220.29;24542;1341;3049888;-72
2022/10/13 06:02:06;;;;;;;16.30;6.70;;;;;;;8.49;67.55;100223.80;24467;1332;3027586;-69
2022/10/13 06:04:43;;;;;;;17.10;7.20;;;;;;;8.45;67.74;100225.17;24568;1328;3026046;-70
2022/10/13 06:07:12;;;;;;;18.40;7.60;;;;;;;8.34;68.38;100226.95;24556;1335;3055781;-70
2022/10/13 06:09:42;;;;;;;18.50;9.10;;;;;;;8.38;68.29;100226.80;24563;1333;3028608;-74
2022/10/13 06:12:12;;;;;;;24.80;10.70;;;;;;;8.36;68.33;100230.71;24544;1341;3026574;-70
2022/10/13 06:14:43;;;;;;;26.60;11.90;;;;;;;8.45;68.00;100224.62;24468;1325;3026760;-74
2022/10/13 06:17:14;;;;;;;27.20;11.50;;;;;;;8.42;68.32;100227.73;24551;1325;3027840;-73
2022/10/13 06:19:46;;;;;;;22.40;10.80;;;;;;;8.37;68.37;100228.23;24597;1327;3026128;-70
2022/10/13 06:22:17;;;;;;;24.70;10.90;;;;;;;8.47;67.99;100227.89;24487;1328;3027375;-74
2022/10/13 06:24:48;;;;;;;21.90;10.90;;;;;;;8.50;68.00;100228.64;24569;1327;3027343;-66
2022/10/13 06:27:18;;;;;;;21.30;11.10;;;;;;;8.45;67.96;100229.87;24471;1332;3026308;-73
2022/10/13 06:29:49;;;;;;;27.00;11.30;;;;;;;8.43;68.36;100232.75;24503;1334;3030255;-67
2022/10/13 06:32:18;;;;;;;26.10;11.00;;;;;;;8.49;68.12;100232.16;24560;1332;3029270;-71
2022/10/13 06:34:47;;;;;;;19.70;9.80;;;;;;;8.44;68.04;100231.64;24479;1336;3056510;-69
2022/10/13 06:37:16;;;;;;;23.30;10.10;;;;;;;8.46;68.26;100228.08;24580;1333;3026973;-67
2022/10/13 06:39:45;;;;;;;27.20;10.70;;;;;;;8.56;68.29;100229.99;24491;1339;3050260;-72
2022/10/13 06:42:15;;;;;;;25.30;10.30;;;;;;;8.78;67.73;100229.08;24522;1334;3026682;-74
2022/10/13 06:44:45;;;;;;;25.70;10.70;;;;;;;8.80;67.36;100233.21;24541;1333;3028602;-76
2022/10/13 06:47:14;;;;;;;24.80;10.70;;;;;;;8.80;67.40;100232.50;24515;1336;3025821;-75
2022/10/13 06:49:43;;;;;;;18.50;10.70;;;;;;;8.92;67.21;100227.11;24519;1333;3057379;-74
2022/10/13 06:52:16;;;;;;;18.60;9.80;;;;;;;9.15;66.92;100226.50;24561;1325;3027302;-75
2022/10/13 06:54:45;;;;;;;22.60;11.00;;;;;;;9.19;66.05;100225.80;24507;1339;3026667;-72
2022/10/13 06:57:14;;;;;;;20.10;9.60;;;;;;;9.21;66.23;100229.05;24655;1343;3056058;-75
2022/10/13 06:59:43;;;;;;;19.60;10.10;;;;;;;9.32;66.10;100228.41;24548;1326;3028335;-74
2022/10/13 07:02:13;;;;;;;23.70;8.30;;;;;;;9.41;65.73;100225.05;24548;1332;3049126;-70
2022/10/13 07:04:42;;;;;;;24.10;7.80;;;;;;;9.49;64.66;100223.98;24586;1335;3028264;-72
2022/10/13 07:07:11;;;;;;;19.20;7.90;;;;;;;9.60;64.57;100225.76;24537;1326;3027514;-69
2022/10/13 07:09:39;;;;;;;21.10;7.80;;;;;;;9.70;64.28;100224.99;24573;1334;3049449;-74
2022/10/13 07:12:08;;;;;;;22.20;7.60;;;;;;;9.79;63.79;100224.60;24600;1326;3025945;-71
2022/10/13 07:14:41;;;;;;;18.70;7.20;;;;;;;9.92;63.69;100226.61;25406;1334;3069441;-71
2022/10/13 07:17:10;;;;;;;15.90;6.50;;;;;;;10.11;63.16;100225.39;25410;1331;3026278;-74
2022/10/13 07:19:40;;;;;;;16.10;6.70;;;;;;;10.21;62.74;100222.31;25415;1327;3048247;-74
2022/10/13 07:22:09;;;;;;;16.60;6.60;;;;;;;10.26;62.44;100226.99;25435;1333;3025857;-73
2022/10/13 07:24:38;;;;;;;15.90;5.40;;;;;;;10.34;62.42;100226.79;25432;1330;3050924;-71
2022/10/13 07:27:07;;;;;;;11.10;5.30;;;;;;;10.47;61.88;100221.63;25442;1337;3027129;-70
2022/10/13 07:29:36;;;;;;;12.90;5.50;;;;;;;10.57;61.48;100223.79;25433;1325;3050748;-73
2022/10/13 07:32:05;;;;;;;14.30;6.40;;;;;;;10.68;61.09;100220.98;25443;1336;3025834;-75
2022/10/13 07:34:34;;;;;;;16.30;7.00;;;;;;;10.76;60.89;100226.54;25420;1328;3026372;-72
2022/10/13 07:37:03;;;;;;;15.90;7.50;;;;;;;10.73;60.59;100234.59;25403;1331;3050673;-75
2022/10/13 07:39:36;;;;;;;16.50;7.30;;;;;;;10.87;60.84;100228.80;25394;1334;3026486;-68
2022/10/13 07:42:04;;;;;;;19.60;7.20;;;;;;;10.97;60.02;100226.73;25450;1332;3026233;-72
2022/10/13 07:44:35;;;;;;;19.60;8.50;;;;;;;10.96;59.62;100228.35;25422;1328;3050379;-73
2022/10/13 07:47:04;;;;;;;16.70;7.70;;;;;;;11.05;59.76;100221.75;25435;1337;3026221;-73
2022/10/13 07:49:33;;;;;;;23.40;8.90;;;;;;;11.20;58.99;100227.48;25424;1332;3051906;-73
2022/10/13 07:52:06;;;;;;;12.90;6.30;;;;;;;11.15;58.65;100225.52;25417;1325;3026320;-73
2022/10/13 07:54:35;;;;;;;16.10;5.90;;;;;;;11.20;57.51;100227.17;25433;1330;3026002;-77
2022/10/13 07:57:04;;;;;;;19.30;7.30;;;;;;;11.17;57.66;100223.96;25439;1325;3025720;-71
2022/10/13 07:59:33;;;;;;;14.10;7.50;;;;;;;11.17;57.53;100225.52;25417;1332;3051662;-73
2022/10/13 08:02:04;;;;;;;15.50;6.10;;;;;;;11.34;57.84;100224.84;25410;1334;3026250;-72
2022/10/13 08:04:33;;;;;;;13.50;5.70;;;;;;;11.51;57.27;100223.47;25435;1333;3053212;-70
2022/10/13 08:07:03;;;;;;;13.10;6.10;;;;;;;11.69;56.21;100225.48;25433;1330;3026631;-69
2022/10/13 08:09:32;;;;;;;20.40;8.60;;;;;;;11.82;56.41;100230.78;25398;1336;3027024;-70
2022/10/13 08:12:01;;;;;;;17.60;7.50;;;;;;;11.71;55.25;100229.08;25433;1326;3052420;-71
2022/10/13 08:14:33;;;;;;;28.90;11.40;;;;;;;11.86;55.63;100226.89;25427;1334;3027675;-73
2022/10/13 08:17:03;;;;;;;40.80;13.20;;;;;;;12.00;56.16;100227.39;25418;1333;3028139;-72
2022/10/13 08:19:32;;;;;;;23.20;9.80;;;;;;;11.95;55.83;100228.36;25431;1333;3026285;-71
2022/10/13 08:22:01;;;;;;;25.30;10.00;;;;;;;11.89;53.60;100227.95;25477;1327;3051160;-71
2022/10/13 08:24:31;;;;;;;26.80;9.10;;;;;;;11.95;54.01;100224.65;25475;1328;3026351;-73
2022/10/13 08:27:00;;;;;;;25.50;8.90;;;;;;;11.85;54.17;100227.63;25468;1320;3026135;-72
2022/10/13 08:29:29;;;;;;;24.30;8.10;;;;;;;11.88;53.37;100224.48;25460;1331;3050093;-73
2022/10/13 08:31:58;;;;;;;25.40;7.20;;;;;;;12.00;54.55;100219.10;25466;1321;3025983;-74
2022/10/13 08:34:28;;;;;;;21.40;7.20;;;;;;;12.30;53.83;100219.07;25488;1328;3051999;-75
2022/10/13 08:36:59;;;;;;;14.90;6.30;;;;;;;12.49;54.13;100217.66;25465;1326;3025958;-72
2022/10/13 08:39:28;;;;;;;7.90;3.80;;;;;;;12.52;53.10;100212.91;25468;1326;3026881;-72
2022/10/13 08:41:58;;;;;;;5.90;3.10;;;;;;;12.41;52.03;100217.90;25443;1331;3026542;-74
2022/10/13 08:44:38;;;;;;;8.40;2.50;;;;;;;12.51;52.23;100214.90;25474;1327;3025968;-74
2022/10/13 08:47:20;;;;;;;9.10;2.40;;;;;;;12.57;51.38;100212.31;25479;1336;3049436;-71
2022/10/13 08:49:49;;;;;;;8.40;2.50;;;;;;;12.50;52.03;100214.42;25452;1332;3056453;-75
2022/10/13 08:52:20;;;;;;;7.20;2.40;;;;;;;12.40;52.02;100213.93;25489;1328;3026127;-73
2022/10/13 08:54:50;;;;;;;4.10;1.80;;;;;;;12.44;51.60;100213.70;25484;1327;3048946;-74
2022/10/13 08:57:19;;;;;;;6.80;2.10;;;;;;;12.60;52.20;100215.80;25442;1331;3026411;-70
2022/10/13 08:59:48;;;;;;;5.10;2.10;;;;;;;12.47;51.76;100217.27;25485;1328;3026709;-73
2022/10/13 09:02:30;;;;;;;5.00;2.60;;;;;;;12.48;52.01;100215.94;25466;1332;3048650;-74
2022/10/13 09:05:00;;;;;;;6.00;2.20;;;;;;;12.62;51.93;100207.42;25463;1329;3056534;-73
2022/10/13 09:07:31;;;;;;;7.30;2.30;;;;;;;12.92;51.68;100211.52;25462;1322;3025347;-70
2022/10/13 09:10:03;;;;;;;11.10;2.90;;;;;;;13.16;50.24;100214.49;25475;1331;3025921;-73
2022/10/13 09:12:32;;;;;;;6.80;2.30;;;;;;;12.84;51.03;100215.81;25470;1322;3026617;-74
2022/10/13 09:15:09;;;;;;;6.80;2.40;;;;;;;12.89;50.96;100210.43;25468;1333;3025841;-71
2022/10/13 09:17:40;;;;;;;8.30;2.40;;;;;;;12.92;50.99;100208.83;25477;1321;3048550;-71
2022/10/13 09:20:17;;;;;;;5.70;2.90;;;;;;;13.23;51.18;100204.24;25449;1331;3026388;-72
2022/10/13 09:23:24;;;;;;;9.30;2.60;;;;;;;13.46;50.82;100199.55;25477;1328;3049561;-73
2022/10/13 09:25:54;;;;;;;6.70;3.00;;;;;;;13.49;50.61;100206.73;25494;1328;3055639;-68
2022/10/13 09:28:26;;;;;;;10.10;3.60;;;;;;;13.21;51.09;100209.11;25458;1336;3026029;-73
2022/10/13 09:31:04;;;;;;;13.70;3.70;;;;;;;13.04;51.95;100198.48;25445;1334;3026442;-70
2022/10/13 09:33:34;;;;;;;7.60;3.20;;;;;;;13.25;52.36;100199.36;25470;1327;3051047;-76
2022/10/13 09:36:11;;;;;;;11.40;3.50;;;;;;;13.23;52.05;100190.82;25482;1329;3026034;-74
2022/10/13 09:38:43;;;;;;;10.80;2.80;;;;;;;13.33;51.93;100200.81;25480;1335;3048079;-74
2022/10/13 09:41:16;;;;;;;7.40;2.60;;;;;;;13.46;51.59;100187.04;25472;1324;3068816;-70
2022/10/13 09:43:45;;;;;;;8.10;3.00;;;;;;;13.48;51.32;100193.79;25473;1324;3025943;-70
2022/10/13 09:46:29;;;;;;;6.90;2.70;;;;;;;13.55;51.03;100179.64;25465;1329;3056036;-75
2022/10/13 09:49:07;;;;;;;6.30;2.50;;;;;;;13.64;50.61;100182.59;25475;1329;3051707;-71
2022/10/13 09:51:41;;;;;;;7.00;2.90;;;;;;;13.49;51.17;100185.84;25457;1331;3052073;-69
2022/10/13 09:54:27;;;;;;;7.70;2.70;;;;;;;13.60;51.27;100182.35;25443;1325;3049850;-71
2022/10/13 09:57:02;;;;;;;12.50;3.60;;;;;;;13.62;50.69;100181.85;25471;1337;3052798;-71
2022/10/13 09:59:33;;;;;;;6.50;2.10;;;;;;;13.50;51.21;100178.20;25472;1326;3049264;-70
2022/10/13 10:02:19;;;;;;;4.70;2.20;;;;;;;13.75;50.73;100175.72;25459;1328;3026006;-72
2022/10/13 10:05:22;;;;;;;7.90;2.40;;;;;;;13.83;50.14;100179.13;25462;1330;3048327;-71
2022/10/13 10:07:55;;;;;;;4.60;1.50;;;;;;;14.09;48.96;100175.41;25471;1320;3057098;-72
2022/10/13 10:10:30;;;;;;;5.70;1.90;;;;;;;14.16;48.70;100173.85;25445;1330;3026335;-72
2022/10/13 10:13:00;;;;;;;8.70;1.90;;;;;;;14.16;46.68;100170.90;25462;1331;3054230;-69
2022/10/13 10:16:01;;;;;;;8.30;2.30;;;;;;;14.39;47.75;100170.98;25436;1323;3026151;-70
2022/10/13 10:18:51;;;;;;;4.60;1.60;;;;;;;14.56;48.00;100170.58;25469;1323;3052291;-70
2022/10/13 10:21:36;;;;;;;7.40;1.80;;;;;;;14.60;46.52;100173.33;25426;1339;3049134;-73
2022/10/13 10:24:07;;;;;;;4.40;1.80;;;;;;;14.48;46.31;100169.68;25422;1333;3068150;-71
2022/10/13 10:26:49;;;;;;;4.10;1.70;;;;;;;14.54;46.11;100164.21;25467;1330;3026283;-70
2022/10/13 10:29:25;;;;;;;5.00;1.80;;;;;;;14.59;45.95;100162.80;25454;1322;3055214;-71
2022/10/13 10:32:03;;;;;;;6.70;1.60;;;;;;;14.60;45.72;100162.89;25446;1323;3052841;-71
2022/10/13 10:34:47;;;;;;;3.70;1.50;;;;;;;14.64;45.76;100156.83;25445;1325;3052921;-72
2022/10/13 10:37:34;;;;;;;2.60;1.20;;;;;;;14.75;45.27;100158.77;25440;1330;3051381;-70
2022/10/13 10:40:08;;;;;;;6.80;1.50;;;;;;;14.70;45.20;100156.65;25444;1330;3052851;-71
2022/10/13 10:43:02;;;;;;;6.40;1.80;;;;;;;14.81;44.90;100159.77;25430;1325;3049227;-72
2022/10/13 10:45:36;;;;;;;5.80;1.60;;;;;;;15.00;45.01;100156.91;25419;1331;3069605;-69
2022/10/13 10:48:35;;;;;;;4.60;1.60;;;;;;;14.98;44.71;100153.69;25459;1335;3049532;-73
2022/10/13 10:51:06;;;;;;;5.00;1.70;;;;;;;15.40;44.24;100143.44;25438;1331;3055853;-74
2022/10/13 10:54:20;;;;;;;7.70;2.80;;;;;;;15.63;43.60;100151.36;25464;1330;3026472;-72
2022/10/13 10:57:14;;;;;;;4.90;1.50;;;;;;;15.58;42.44;100154.70;25366;1330;3052816;-75
2022/10/13 11:00:08;;;;;;;5.50;1.10;;;;;;;15.42;41.36;100157.02;25455;1330;3050849;-69
2022/10/13 11:02:58;;;;;;;3.20;1.20;;;;;;;15.13;40.64;100148.45;25462;1330;3051751;-72
2022/10/13 11:05:55;;;;;;;3.30;1.10;;;;;;;14.90;41.10;100150.89;25469;1330;3048506;-68
2022/10/13 11:08:36;;;;;;;2.40;1.00;;;;;;;14.80;41.70;100147.88;25451;1329;3069480;-74
2022/10/13 11:11:21;;;;;;;8.00;1.50;;;;;;;14.44;42.64;100147.06;25472;1330;3049313;-71
2022/10/13 11:13:57;;;;;;;3.80;1.30;;;;;;;14.36;42.97;100147.39;25461;1331;3057117;-71
2022/10/13 11:16:45;;;;;;;4.90;1.40;;;;;;;14.76;42.80;100138.40;25451;1330;3052367;-72
2022/10/13 11:19:27;;;;;;;6.70;2.20;;;;;;;15.01;42.20;100137.11;25461;1328;3052973;-69
2022/10/13 11:21:58;;;;;;;5.70;2.20;;;;;;;15.31;41.92;100126.18;25457;1326;3050784;-71
2022/10/13 11:24:35;;;;;;;7.80;2.10;;;;;;;15.74;41.11;100134.13;25472;1330;3026352;-73
2022/10/13 11:27:07;;;;;;;4.10;1.30;;;;;;;16.09;40.47;100124.23;25462;1337;3026132;-73
2022/10/13 11:29:42;;;;;;;3.90;1.80;;;;;;;16.08;40.58;100123.56;25454;1322;3026457;-72
2022/10/13 11:32:27;;;;;;;5.90;1.70;;;;;;;16.04;40.52;100134.14;25471;1330;3050112;-73
2022/10/13 11:35:05;;;;;;;3.20;1.30;;;;;;;15.55;40.96;100134.42;25469;1327;3055981;-75
2022/10/13 11:37:43;;;;;;;3.50;1.30;;;;;;;15.04;41.95;100139.52;25460;1322;3051727;-70
2022/10/13 11:40:36;;;;;;;10.60;1.60;;;;;;;14.85;42.58;100132.70;25466;1330;3053317;-71
2022/10/13 11:43:17;;;;;;;3.70;1.20;;;;;;;14.78;42.33;100134.23;25455;1330;3051848;-73
2022/10/13 11:46:00;;;;;;;3.40;1.30;;;;;;;14.78;42.54;100131.96;25475;1329;3051583;-73